sensor_id;sensor_type;location;lat;lon;timestamp;pressure;altitude;pressure_sealevel;temperature;humidity
31011;BME280;26395;53.412;19.598;2022-12-07T00:07:44;99653.30;;;5.04;100.00
31011;BME280;26395;53.412;19.598;2022-12-07T00:22:47;99647.66;;;5.17;100.00
31011;BME280;26395;53.412;19.598;2022-12-07T00:37:51;99640.31;;;5.17;100.00
31011;BME280;26395;53.412;19.598;2022-12-07T00:52:54;99637.66;;;5.16;100.00
31011;BME280;26395;53.412;19.598;2022-12-07T01:07:57;99622.78;;;4.97;100.00
31011;BME280;26395;53.412;19.598;2022-12-07T01:23:01;99604.59;;;4.92;100.00
31011;BME280;26395;53.412;19.598;2022-12-07T01:38:04;99588.55;;;4.75;100.00
31011;BME280;26395;53.412;19.598;2022-12-07T01:53:09;99579.08;;;4.76;100.00
31011;BME280;26395;53.412;19.598;2022-12-07T02:08:13;99565.70;;;4.46;100.00
31011;BME280;26395;53.412;19.598;2022-12-07T02:38:35;99542.99;;;4.13;100.00
31011;BME280;26395;53.412;19.598;2022-12-07T02:53:43;99525.02;;;4.06;100.00
31011;BME280;26395;53.412;19.598;2022-12-07T03:24:04;99497.48;;;3.95;100.00
31011;BME280;26395;53.412;19.598;2022-12-07T03:39:25;99481.75;;;3.80;100.00
31011;BME280;26395;53.412;19.598;2022-12-07T03:54:37;99469.16;;;3.77;100.00
31011;BME280;26395;53.412;19.598;2022-12-07T04:09:42;99450.89;;;3.62;100.00
31011;BME280;26395;53.412;19.598;2022-12-07T04:24:45;99441.01;;;3.55;100.00
31011;BME280;26395;53.412;19.598;2022-12-07T04:39:49;99431.55;;;3.64;100.00
31011;BME280;26395;53.412;19.598;2022-12-07T04:54:52;99419.06;;;3.62;100.00
31011;BME280;26395;53.412;19.598;2022-12-07T05:09:55;99408.00;;;3.60;100.00
31011;BME280;26395;53.412;19.598;2022-12-07T05:24:59;99391.26;;;3.54;100.00
31011;BME280;26395;53.412;19.598;2022-12-07T05:40:03;99381.27;;;3.46;100.00
31011;BME280;26395;53.412;19.598;2022-12-07T05:55:07;99381.01;;;3.43;100.00
31011;BME280;26395;53.412;19.598;2022-12-07T06:10:11;99380.22;;;3.52;100.00
31011;BME280;26395;53.412;19.598;2022-12-07T06:25:15;99373.38;;;3.60;100.00
31011;BME280;26395;53.412;19.598;2022-12-07T06:40:18;99373.17;;;3.51;100.00
31011;BME280;26395;53.412;19.598;2022-12-07T06:55:21;99365.73;;;3.77;100.00
31011;BME280;26395;53.412;19.598;2022-12-07T07:10:25;99357.79;;;3.88;100.00
31011;BME280;26395;53.412;19.598;2022-12-07T07:25:29;99356.14;;;4.10;100.00
31011;BME280;26395;53.412;19.598;2022-12-07T07:40:32;99346.59;;;4.29;100.00
31011;BME280;26395;53.412;19.598;2022-12-07T07:55:36;99354.52;;;4.30;100.00
31011;BME280;26395;53.412;19.598;2022-12-07T08:10:39;99353.92;;;4.42;100.00
31011;BME280;26395;53.412;19.598;2022-12-07T08:25:42;99361.11;;;4.43;100.00
31011;BME280;26395;53.412;19.598;2022-12-07T08:40:56;99366.81;;;4.43;100.00
31011;BME280;26395;53.412;19.598;2022-12-07T08:56:00;99370.72;;;4.42;100.00
31011;BME280;26395;53.412;19.598;2022-12-07T09:11:03;99371.56;;;4.40;100.00
31011;BME280;26395;53.412;19.598;2022-12-07T09:26:07;99367.19;;;4.22;100.00
31011;BME280;26395;53.412;19.598;2022-12-07T09:41:12;99356.02;;;4.10;100.00
31011;BME280;26395;53.412;19.598;2022-12-07T09:56:17;99352.45;;;4.06;100.00
31011;BME280;26395;53.412;19.598;2022-12-07T10:11:21;99343.39;;;3.91;100.00
31011;BME280;26395;53.412;19.598;2022-12-07T10:41:31;99338.56;;;3.87;100.00
31011;BME280;26395;53.412;19.598;2022-12-07T10:57:17;99326.69;;;3.88;100.00
31011;BME280;26395;53.412;19.598;2022-12-07T11:12:29;99317.08;;;3.96;100.00
31011;BME280;26395;53.412;19.598;2022-12-07T11:43:22;99291.77;;;4.03;100.00
31011;BME280;26395;53.412;19.598;2022-12-07T11:58:48;99282.04;;;4.09;100.00
31011;BME280;26395;53.412;19.598;2022-12-07T12:29:39;99263.34;;;4.27;100.00
31011;BME280;26395;53.412;19.598;2022-12-07T12:45:04;99242.50;;;4.16;100.00
31011;BME280;26395;53.412;19.598;2022-12-07T13:15:37;99221.09;;;4.20;100.00
31011;BME280;26395;53.412;19.598;2022-12-07T13:31:04;99207.55;;;4.16;100.00
31011;BME280;26395;53.412;19.598;2022-12-07T13:46:12;99198.63;;;4.15;100.00
31011;BME280;26395;53.412;19.598;2022-12-07T14:01:20;99201.70;;;4.05;100.00
31011;BME280;26395;53.412;19.598;2022-12-07T14:31:35;99181.64;;;3.73;100.00
31011;BME280;26395;53.412;19.598;2022-12-07T14:46:38;99177.69;;;3.75;100.00
31011;BME280;26395;53.412;19.598;2022-12-07T15:01:42;99174.23;;;3.82;100.00
31011;BME280;26395;53.412;19.598;2022-12-07T15:16:46;99166.45;;;3.82;100.00
31011;BME280;26395;53.412;19.598;2022-12-07T15:32:09;99159.36;;;3.84;100.00
31011;BME280;26395;53.412;19.598;2022-12-07T15:47:13;99163.91;;;3.75;100.00
31011;BME280;26395;53.412;19.598;2022-12-07T16:02:16;99163.67;;;3.71;100.00
31011;BME280;26395;53.412;19.598;2022-12-07T16:17:20;99165.11;;;3.68;100.00
31011;BME280;26395;53.412;19.598;2022-12-07T16:32:23;99160.16;;;3.65;100.00
31011;BME280;26395;53.412;19.598;2022-12-07T16:47:27;99165.67;;;3.56;100.00
31011;BME280;26395;53.412;19.598;2022-12-07T17:02:30;99157.77;;;3.51;100.00
31011;BME280;26395;53.412;19.598;2022-12-07T17:17:34;99160.77;;;3.45;100.00
31011;BME280;26395;53.412;19.598;2022-12-07T17:32:37;99166.55;;;3.51;100.00
31011;BME280;26395;53.412;19.598;2022-12-07T17:47:40;99170.39;;;3.51;100.00
31011;BME280;26395;53.412;19.598;2022-12-07T18:02:44;99178.73;;;3.50;100.00
31011;BME280;26395;53.412;19.598;2022-12-07T18:17:48;99181.21;;;3.52;100.00
31011;BME280;26395;53.412;19.598;2022-12-07T18:32:52;99184.45;;;3.45;100.00
31011;BME280;26395;53.412;19.598;2022-12-07T18:47:55;99188.15;;;3.44;100.00
31011;BME280;26395;53.412;19.598;2022-12-07T19:02:59;99187.87;;;3.39;100.00
31011;BME280;26395;53.412;19.598;2022-12-07T19:18:02;99196.83;;;3.39;100.00
31011;BME280;26395;53.412;19.598;2022-12-07T19:33:06;99200.64;;;3.35;100.00
31011;BME280;26395;53.412;19.598;2022-12-07T19:48:09;99207.66;;;3.31;100.00
31011;BME280;26395;53.412;19.598;2022-12-07T20:03:12;99215.67;;;3.37;100.00
31011;BME280;26395;53.412;19.598;2022-12-07T20:18:16;99219.96;;;3.37;99.91
31011;BME280;26395;53.412;19.598;2022-12-07T20:33:20;99213.41;;;3.33;98.30
31011;BME280;26395;53.412;19.598;2022-12-07T20:48:23;99220.70;;;3.23;95.79
31011;BME280;26395;53.412;19.598;2022-12-07T21:03:26;99229.86;;;3.04;94.17
31011;BME280;26395;53.412;19.598;2022-12-07T21:18:30;99236.29;;;2.94;93.99
31011;BME280;26395;53.412;19.598;2022-12-07T21:33:34;99250.41;;;2.92;94.56
31011;BME280;26395;53.412;19.598;2022-12-07T21:48:53;99269.44;;;2.87;94.57
31011;BME280;26395;53.412;19.598;2022-12-07T22:03:56;99287.85;;;2.80;93.71
31011;BME280;26395;53.412;19.598;2022-12-07T22:19:00;99290.77;;;2.81;92.86
31011;BME280;26395;53.412;19.598;2022-12-07T22:34:03;99302.45;;;2.79;92.46
31011;BME280;26395;53.412;19.598;2022-12-07T22:49:07;99303.50;;;2.77;91.80
31011;BME280;26395;53.412;19.598;2022-12-07T23:04:10;99312.27;;;2.77;91.73
31011;BME280;26395;53.412;19.598;2022-12-07T23:19:13;99315.31;;;2.85;91.33
31011;BME280;26395;53.412;19.598;2022-12-07T23:34:17;99321.16;;;2.83;91.04
31011;BME280;26395;53.412;19.598;2022-12-07T23:49:21;99316.24;;;2.82;90.01
